Time;durP1;ratioP1;P1;durP2;ratioP2;P2;SDS_P1;SDS_P2;PMS_P1;PMS_P2;Temp;Humidity;BMP_temperature;BMP_pressure;BME280_temperature;BME280_humidity;BME280_pressure;Samples;Min_cycle;Max_cycle;Signal;HPM_P1;HPM_P2
2021/12/16 00:02:28;;;;;;;29.20;13.50;;;;;;;7.21;92.28;101666.84;102205;1318;24547;-60
2021/12/16 00:05:22;;;;;;;28.50;13.90;;;;;;;7.20;92.25;101665.09;102210;1319;24340;-61
2021/12/16 00:07:58;;;;;;;32.20;14.70;;;;;;;7.20;92.31;101661.99;102278;1318;22561;-62
2021/12/16 00:10:35;;;;;;;29.10;13.90;;;;;;;7.21;92.26;101656.12;102283;1318;24484;-61
2021/12/16 00:30:11;;;;;;;29.70;12.10;;;;;;;7.20;92.29;101659.36;102359;1318;24524;-61
2021/12/16 00:32:48;;;;;;;26.00;10.90;;;;;;;7.19;92.24;101653.93;102861;1315;22582;-62
2021/12/16 00:35:20;;;;;;;25.40;11.20;;;;;;;7.19;92.11;101652.83;102972;1313;24224;-62
2021/12/16 00:37:52;;;;;;;22.00;10.70;;;;;;;7.18;92.21;101656.01;102654;1313;22585;-62
2021/12/16 00:40:23;;;;;;;25.50;10.60;;;;;;;7.18;92.15;101658.70;102746;1315;25465;-62
2021/12/16 00:42:58;;;;;;;24.50;10.00;;;;;;;7.18;92.13;101655.45;102564;1315;22639;-62
2021/12/16 00:45:38;;;;;;;23.10;10.30;;;;;;;7.17;92.14;101654.60;102576;1315;22608;-62
2021/12/16 00:48:22;;;;;;;24.40;9.60;;;;;;;7.16;92.11;101654.84;102605;1314;22667;-62
2021/12/16 00:56:32;;;;;;;23.20;9.40;;;;;;;7.15;92.28;101655.58;102646;1319;25239;-62
2021/12/16 00:59:04;;;;;;;23.70;8.50;;;;;;;7.14;92.20;101653.60;102665;1318;22679;-62
2021/12/16 01:01:44;;;;;;;23.60;9.30;;;;;;;7.15;92.23;101653.67;102816;1318;24307;-62
2021/12/16 01:04:49;;;;;;;25.30;9.70;;;;;;;7.15;92.25;101654.23;102856;1316;22800;-61
2021/12/16 01:07:47;;;;;;;24.30;8.90;;;;;;;7.14;92.24;101653.86;102896;1316;22684;-62
2021/12/16 01:36:06;;;;;;;19.00;7.20;;;;;;;7.08;92.19;101645.70;102328;1318;22953;-62
2021/12/16 01:47:41;;;;;;;18.70;8.10;;;;;;;7.07;92.14;101628.91;102377;1318;24281;-62
2021/12/16 01:50:22;;;;;;;19.90;7.90;;;;;;;7.06;92.13;101628.66;102437;1318;22609;-62
2021/12/16 01:53:15;;;;;;;21.00;7.10;;;;;;;7.07;92.25;101628.27;102466;1320;22573;-62
2021/12/16 01:55:54;;;;;;;19.20;7.90;;;;;;;7.06;92.21;101628.20;102636;1314;25355;-62
2021/12/16 01:58:28;;;;;;;17.60;7.10;;;;;;;7.07;92.23;101633.58;102621;1317;22650;-61
2021/12/16 02:01:12;;;;;;;18.80;8.20;;;;;;;7.07;92.19;101629.70;102618;1315;22582;-62
2021/12/16 02:03:48;;;;;;;18.00;6.40;;;;;;;7.07;92.28;101629.44;102638;1315;23149;-61
2021/12/16 02:06:40;;;;;;;17.80;7.60;;;;;;;7.08;92.14;101630.39;102690;1315;25332;-62
2021/12/16 02:09:20;;;;;;;17.70;6.70;;;;;;;7.08;92.14;101630.15;102707;1319;25415;-62
2021/12/16 02:11:57;;;;;;;16.70;7.20;;;;;;;7.08;92.12;101629.83;102758;1315;22595;-63
2021/12/16 02:28:47;;;;;;;20.00;7.30;;;;;;;7.07;92.19;101626.92;102598;1318;24206;-61
2021/12/16 02:31:32;;;;;;;16.80;7.10;;;;;;;7.07;92.08;101627.08;102636;1313;25435;-61
2021/12/16 02:36:53;;;;;;;20.90;7.60;;;;;;;7.07;91.98;101630.49;102383;1316;22697;-61
2021/12/16 02:39:26;;;;;;;20.80;7.90;;;;;;;7.07;92.01;101630.48;102512;1316;22599;-62
2021/12/16 02:42:00;;;;;;;17.40;6.70;;;;;;;7.08;91.95;101628.33;102445;1316;25333;-62
2021/12/16 02:44:38;;;;;;;17.50;7.20;;;;;;;7.08;91.91;101628.88;102526;1316;26579;-62
2021/12/16 02:50:00;;;;;;;18.60;7.50;;;;;;;7.07;91.86;101625.09;102451;1317;26670;-61
2021/12/16 02:52:32;;;;;;;21.10;8.50;;;;;;;7.07;91.85;101624.55;102494;1316;24190;-62
2021/12/16 02:55:03;;;;;;;17.30;7.00;;;;;;;7.07;91.85;101630.64;102447;1318;23691;-61
2021/12/16 02:57:43;;;;;;;21.20;8.60;;;;;;;7.07;91.78;101632.79;102491;1316;25217;-61
2021/12/16 03:00:16;;;;;;;15.60;7.00;;;;;;;7.07;91.82;101633.19;102373;1316;23135;-62
2021/12/16 03:02:52;;;;;;;20.00;7.60;;;;;;;7.06;91.77;101630.65;102460;1318;24221;-61
2021/12/16 03:05:24;;;;;;;18.20;7.90;;;;;;;7.06;91.80;101628.91;102381;1316;25255;-62
2021/12/16 03:07:55;;;;;;;17.50;6.30;;;;;;;7.06;91.73;101628.83;102465;1316;24245;-62
2021/12/16 03:13:24;;;;;;;17.50;6.90;;;;;;;7.05;91.68;101626.16;102561;1318;24259;-61
2021/12/16 03:16:14;;;;;;;16.00;6.10;;;;;;;7.04;91.63;101621.56;102569;1315;22566;-62
2021/12/16 03:18:52;;;;;;;18.40;6.70;;;;;;;7.03;91.52;101627.45;103174;1315;24465;-62
2021/12/16 03:21:28;;;;;;;16.50;6.90;;;;;;;7.03;91.58;101624.36;102979;1316;22601;-61
2021/12/16 03:24:23;;;;;;;15.90;6.40;;;;;;;7.02;91.49;101628.34;102824;1318;22657;-61
2021/12/16 03:30:12;;;;;;;18.20;7.20;;;;;;;7.01;91.49;101637.24;102622;1318;22585;-60
2021/12/16 03:35:40;;;;;;;16.10;6.70;;;;;;;7.01;91.49;101650.10;102597;1316;25422;-60
2021/12/16 03:38:12;;;;;;;20.00;8.30;;;;;;;7.01;91.41;101653.73;102629;1313;23065;-60
2021/12/16 03:40:43;;;;;;;15.20;5.80;;;;;;;7.01;91.34;101652.16;102603;1318;25309;-60
2021/12/16 03:43:19;;;;;;;18.70;7.40;;;;;;;7.00;91.40;101651.14;102568;1316;22581;-60
2021/12/16 03:48:46;;;;;;;17.10;6.10;;;;;;;7.01;91.22;101649.00;102583;1315;22646;-61
2021/12/16 03:53:49;;;;;;;18.30;7.10;;;;;;;7.01;91.29;101653.36;103755;1311;24273;-61
2021/12/16 03:56:23;;;;;;;18.70;6.80;;;;;;;7.01;91.15;101653.35;103558;1316;24247;-62
2021/12/16 03:58:54;;;;;;;17.90;6.90;;;;;;;7.02;91.14;101654.20;103519;1313;22671;-60
2021/12/16 04:01:29;;;;;;;18.00;6.60;;;;;;;7.02;91.15;101655.70;103376;1315;22531;-61
2021/12/16 04:04:00;;;;;;;16.80;7.00;;;;;;;7.03;91.07;101659.59;103473;1312;22642;-62
2021/12/16 04:06:35;;;;;;;18.90;6.80;;;;;;;7.03;91.10;101657.28;103414;1312;23020;-62
2021/12/16 04:09:08;;;;;;;19.30;7.10;;;;;;;7.04;90.99;101661.46;103561;1313;22749;-62
2021/12/16 04:11:47;;;;;;;18.70;7.30;;;;;;;7.05;90.97;101655.27;103706;1315;22746;-60
2021/12/16 04:14:19;;;;;;;24.20;8.30;;;;;;;7.06;91.02;101655.17;103409;1312;22819;-62
2021/12/16 04:16:52;;;;;;;17.90;6.70;;;;;;;7.07;91.00;101658.41;103623;1312;25433;-59
2021/12/16 04:19:26;;;;;;;19.30;7.30;;;;;;;7.08;90.83;101660.30;103628;1312;22576;-60
2021/12/16 04:22:03;;;;;;;21.20;8.20;;;;;;;7.09;90.79;101655.60;103556;1312;25461;-61
2021/12/16 04:24:34;;;;;;;20.00;7.50;;;;;;;7.08;90.81;101655.53;103458;1313;23405;-61
2021/12/16 04:27:09;;;;;;;21.40;8.70;;;;;;;7.09;90.80;101662.34;103577;1313;22643;-63
2021/12/16 04:29:41;;;;;;;21.40;7.80;;;;;;;7.10;90.68;101664.06;103673;1316;22592;-58
2021/12/16 04:32:13;;;;;;;22.10;8.40;;;;;;;7.11;90.70;101659.29;103473;1312;23882;-60
2021/12/16 04:34:45;;;;;;;22.10;8.80;;;;;;;7.13;90.75;101661.33;103506;1312;23665;-61
2021/12/16 04:37:17;;;;;;;18.70;7.10;;;;;;;7.12;90.67;101661.65;103556;1313;22765;-64
2021/12/16 04:39:49;;;;;;;21.60;8.30;;;;;;;7.11;90.52;101656.20;103588;1313;25405;-58
2021/12/16 04:42:25;;;;;;;19.20;7.80;;;;;;;7.10;90.57;101655.42;103504;1313;22913;-60
2021/12/16 04:44:56;;;;;;;17.10;6.60;;;;;;;7.07;90.42;101656.17;103465;1312;22680;-59
2021/12/16 04:47:29;;;;;;;20.70;8.10;;;;;;;7.06;90.32;101654.94;103710;1312;24233;-59
2021/12/16 04:50:00;;;;;;;21.80;7.70;;;;;;;7.05;90.33;101650.83;103501;1312;22586;-58
2021/12/16 04:52:32;;;;;;;18.90;7.50;;;;;;;7.04;90.30;101655.36;103521;1312;23113;-58
2021/12/16 04:55:03;;;;;;;20.30;8.20;;;;;;;7.03;90.40;101655.94;103097;1312;398288;-61
2021/12/16 04:57:35;;;;;;;20.50;8.40;;;;;;;7.02;90.34;101653.88;103455;1312;22775;-59
2021/12/16 05:00:12;;;;;;;20.90;8.00;;;;;;;7.02;90.37;101652.61;103614;1313;22530;-62
2021/12/16 05:02:44;;;;;;;25.80;8.10;;;;;;;7.01;90.27;101654.06;103749;1312;24273;-61
2021/12/16 05:05:16;;;;;;;18.40;7.70;;;;;;;7.01;90.28;101656.38;103723;1316;25411;-62
2021/12/16 05:07:47;;;;;;;19.60;8.30;;;;;;;7.01;90.31;101654.70;103425;1312;22568;-59
2021/12/16 05:10:19;;;;;;;20.90;8.70;;;;;;;7.01;90.31;101647.48;103498;1313;22537;-60
2021/12/16 05:12:54;;;;;;;21.90;9.20;;;;;;;7.00;90.23;101652.02;103489;1313;25274;-59
2021/12/16 05:15:30;;;;;;;24.40;10.80;;;;;;;7.01;90.22;101651.61;103507;1312;25406;-59
2021/12/16 05:18:04;;;;;;;25.50;9.80;;;;;;;7.00;90.32;101656.54;103636;1318;25516;-59
2021/12/16 05:20:41;;;;;;;23.50;9.20;;;;;;;7.00;90.25;101660.91;103636;1312;22604;-60
2021/12/16 05:26:16;;;;;;;22.50;9.40;;;;;;;6.98;90.18;101664.97;104303;1320;22590;-61
2021/12/16 05:28:50;;;;;;;25.10;10.00;;;;;;;6.97;90.30;101666.10;103551;1317;22798;-59
2021/12/16 05:31:24;;;;;;;25.70;9.30;;;;;;;6.97;90.25;101659.77;103642;1316;24237;-60
2021/12/16 05:33:57;;;;;;;25.90;10.20;;;;;;;6.96;90.41;101665.09;103515;1317;25405;-59
2021/12/16 05:36:29;;;;;;;28.40;11.30;;;;;;;6.96;90.35;101658.58;103545;1313;24237;-61
2021/12/16 05:39:00;;;;;;;23.50;10.80;;;;;;;6.97;90.28;101659.37;103496;1312;22567;-61
2021/12/16 05:41:31;;;;;;;22.40;9.60;;;;;;;6.97;90.25;101656.27;103596;1312;22812;-61
2021/12/16 05:44:02;;;;;;;24.10;10.40;;;;;;;6.96;90.37;101651.83;103448;1319;22907;-59
2021/12/16 05:46:33;;;;;;;26.60;10.80;;;;;;;6.96;90.41;101647.08;103459;1312;24007;-59
2021/12/16 05:49:08;;;;;;;26.90;11.30;;;;;;;6.95;90.44;101646.61;103439;1312;22596;-62
2021/12/16 05:51:42;;;;;;;31.50;13.20;;;;;;;6.94;90.49;101647.81;103548;1312;22593;-59
2021/12/16 05:54:14;;;;;;;28.80;12.70;;;;;;;6.93;90.57;101650.62;103446;1312;24530;-62
2021/12/16 05:56:47;;;;;;;27.40;9.20;;;;;;;6.92;90.71;101651.98;103491;1312;24184;-60
2021/12/16 05:59:19;;;;;;;27.00;12.10;;;;;;;6.91;90.79;101653.20;103556;1312;22941;-62
2021/12/16 06:01:51;;;;;;;25.50;11.80;;;;;;;6.90;90.88;101654.46;103580;1316;26822;-60
2021/12/16 06:04:22;;;;;;;25.50;10.80;;;;;;;6.90;90.96;101658.04;103457;1312;22641;-62
2021/12/16 06:06:53;;;;;;;32.30;13.10;;;;;;;6.89;90.94;101654.40;103513;1312;22579;-60
2021/12/16 06:09:24;;;;;;;32.30;12.90;;;;;;;6.90;91.06;101659.31;103549;1317;22583;-62
2021/12/16 06:11:57;;;;;;;34.80;14.70;;;;;;;6.88;91.11;101658.77;103504;1312;22647;-61
2021/12/16 06:14:42;;;;;;;35.40;14.00;;;;;;;6.87;91.09;101657.92;103506;1313;22593;-58
2021/12/16 06:28:46;;;;;;;33.10;13.20;;;;;;;6.85;91.33;101653.91;102484;1324;25525;-61
2021/12/16 06:31:21;;;;;;;39.00;14.10;;;;;;;6.84;91.28;101657.58;102857;1328;24253;-60
2021/12/16 06:33:52;;;;;;;32.20;13.50;;;;;;;6.85;91.41;101656.14;102500;1324;22597;-60
2021/12/16 06:36:23;;;;;;;30.00;11.60;;;;;;;6.85;91.33;101658.83;102418;1324;22602;-59
2021/12/16 06:38:54;;;;;;;28.60;11.90;;;;;;;6.85;91.43;101658.91;102447;1323;24336;-60
2021/12/16 06:41:27;;;;;;;28.40;12.80;;;;;;;6.85;91.43;101663.59;102319;1323;22597;-61
2021/12/16 06:44:01;;;;;;;28.50;12.60;;;;;;;6.85;91.43;101661.78;102386;1323;23820;-60
2021/12/16 06:46:36;;;;;;;26.60;10.60;;;;;;;6.84;91.55;101662.02;102339;1324;24120;-58
2021/12/16 06:49:09;;;;;;;32.00;12.50;;;;;;;6.84;91.59;101666.78;102578;1323;25897;-60
2021/12/16 06:51:48;;;;;;;26.80;13.00;;;;;;;6.84;91.75;101669.80;102317;1324;24329;-61
2021/12/16 06:54:28;;;;;;;33.40;14.10;;;;;;;6.84;91.76;101665.52;102376;1324;23101;-62
2021/12/16 06:57:15;;;;;;;33.40;13.30;;;;;;;6.84;91.80;101664.95;102276;1323;22574;-61
2021/12/16 06:59:53;;;;;;;32.90;13.90;;;;;;;6.85;91.82;101662.48;102359;1324;25296;-61
2021/12/16 07:02:49;;;;;;;28.10;12.00;;;;;;;6.85;91.88;101659.31;102330;1322;24231;-61
2021/12/16 07:05:22;;;;;;;29.80;13.20;;;;;;;6.85;91.91;101659.14;102859;1318;25946;-61
2021/12/16 07:07:53;;;;;;;31.60;13.50;;;;;;;6.85;92.03;101658.12;103372;1319;22501;-60
2021/12/16 07:10:25;;;;;;;37.40;15.30;;;;;;;6.85;91.95;101658.42;103500;1313;22597;-62
2021/12/16 07:13:06;;;;;;;35.90;15.50;;;;;;;6.85;92.10;101662.33;103405;1312;22644;-61
2021/12/16 07:15:38;;;;;;;33.50;14.40;;;;;;;6.84;92.17;101667.10;103341;1312;23743;-63
2021/12/16 07:18:09;;;;;;;32.70;13.60;;;;;;;6.82;92.17;101663.00;103390;1317;22621;-62
2021/12/16 07:20:40;;;;;;;37.80;15.70;;;;;;;6.82;92.26;101669.75;103487;1312;22535;-61
2021/12/16 07:23:12;;;;;;;33.40;14.50;;;;;;;6.82;92.27;101673.55;103534;1313;22895;-62
2021/12/16 07:25:43;;;;;;;36.10;13.90;;;;;;;6.82;92.42;101672.67;103343;1319;25915;-61
2021/12/16 07:28:14;;;;;;;35.90;15.30;;;;;;;6.81;92.43;101675.79;102790;1312;26684;-62
2021/12/16 07:30:47;;;;;;;36.30;15.80;;;;;;;6.80;92.56;101674.69;102824;1312;25307;-61
2021/12/16 07:33:18;;;;;;;35.50;16.30;;;;;;;6.80;92.73;101673.65;103519;1314;25396;-60
2021/12/16 07:35:50;;;;;;;34.80;16.00;;;;;;;6.80;92.74;101675.41;102649;1318;23203;-60
2021/12/16 07:38:22;;;;;;;30.90;14.20;;;;;;;6.80;92.84;101672.08;102866;1312;22643;-60
2021/12/16 07:40:57;;;;;;;37.00;16.30;;;;;;;6.78;92.87;101668.77;103511;1312;25882;-63
2021/12/16 07:43:42;;;;;;;41.90;17.80;;;;;;;6.77;93.00;101667.83;103603;1318;22590;-62
2021/12/16 07:46:14;;;;;;;36.70;16.70;;;;;;;6.76;93.12;101669.10;103451;1312;22577;-62
2021/12/16 07:48:45;;;;;;;36.90;15.80;;;;;;;6.76;93.11;101673.80;103704;1313;22561;-61
2021/12/16 07:51:16;;;;;;;36.20;16.40;;;;;;;6.76;93.25;101675.06;103578;1313;22647;-63
2021/12/16 07:53:48;;;;;;;37.30;16.70;;;;;;;6.76;93.29;101672.37;103652;1319;25419;-62
2021/12/16 07:56:20;;;;;;;36.30;16.80;;;;;;;6.75;93.44;101673.48;103180;1315;22593;-60
2021/12/16 07:58:51;;;;;;;35.50;16.30;;;;;;;6.74;93.39;101672.23;102817;1315;25571;-60
2021/12/16 08:01:22;;;;;;;40.70;16.90;;;;;;;6.74;93.44;101672.57;102714;1315;22650;-60
2021/12/16 08:03:54;;;;;;;38.50;16.40;;;;;;;6.74;93.61;101679.14;102714;1313;22577;-59
2021/12/16 08:06:29;;;;;;;39.90;17.00;;;;;;;6.74;93.53;101683.11;102858;1315;24340;-59
2021/12/16 08:09:04;;;;;;;41.70;18.40;;;;;;;6.74;93.69;101677.55;103119;1313;22569;-58
2021/12/16 08:11:39;;;;;;;36.60;16.10;;;;;;;6.74;93.81;101675.25;106549;1313;22431;-60
2021/12/16 08:14:10;;;;;;;37.50;16.30;;;;;;;6.75;93.90;101683.16;103131;1319;22792;-58
2021/12/16 08:16:44;;;;;;;39.60;16.50;;;;;;;6.76;93.88;101684.27;102835;1321;22567;-60
2021/12/16 08:19:16;;;;;;;37.10;16.20;;;;;;;6.78;94.01;101687.88;102887;1313;22813;-59
2021/12/16 08:21:46;;;;;;;39.10;15.70;;;;;;;6.80;94.12;101689.67;102697;1313;24301;-59
2021/12/16 08:24:19;;;;;;;41.90;16.40;;;;;;;6.82;94.06;101689.96;102597;1315;22673;-60
2021/12/16 08:26:53;;;;;;;36.90;16.20;;;;;;;6.84;94.09;101691.29;102728;1315;24279;-60
2021/12/16 08:29:25;;;;;;;38.70;15.80;;;;;;;6.85;94.10;101695.41;102999;1318;26539;-61
2021/12/16 08:31:57;;;;;;;34.40;14.60;;;;;;;6.86;93.92;101699.98;102867;1315;22737;-60
2021/12/16 08:34:31;;;;;;;31.60;15.00;;;;;;;6.86;94.01;101694.67;105287;1316;24340;-61
2021/12/16 08:37:02;;;;;;;37.80;15.10;;;;;;;6.87;93.96;101689.73;102731;1315;23572;-60
2021/12/16 08:39:33;;;;;;;37.20;15.10;;;;;;;6.86;93.89;101688.16;103669;1315;24265;-59
2021/12/16 08:42:09;;;;;;;33.20;13.90;;;;;;;6.86;93.95;101691.02;102715;1315;25429;-61
2021/12/16 08:44:40;;;;;;;39.50;15.20;;;;;;;6.86;94.01;101694.52;102807;1320;24302;-60
2021/12/16 08:47:14;;;;;;;33.50;13.40;;;;;;;6.87;94.05;101701.64;102726;1319;22655;-60
2021/12/16 08:49:45;;;;;;;36.10;15.10;;;;;;;6.86;94.10;101711.48;102739;1319;22612;-61
2021/12/16 08:52:19;;;;;;;31.80;12.30;;;;;;;6.87;94.10;101715.66;102808;1318;22578;-60
2021/12/16 08:54:52;;;;;;;27.00;12.20;;;;;;;6.88;94.02;101725.80;102740;1312;22582;-61
2021/12/16 08:57:24;;;;;;;33.90;12.80;;;;;;;6.88;94.18;101728.35;102749;1319;25423;-60
2021/12/16 08:59:55;;;;;;;29.50;13.10;;;;;;;6.88;94.07;101733.98;102879;1312;22577;-60
2021/12/16 09:02:27;;;;;;;27.60;11.40;;;;;;;6.89;94.07;101736.03;102732;1317;24269;-61
2021/12/16 09:04:57;;;;;;;33.90;14.30;;;;;;;6.88;94.08;101732.39;102800;1316;25503;-60
2021/12/16 09:07:28;;;;;;;27.30;11.60;;;;;;;6.89;94.17;101735.70;103024;1312;25550;-62
2021/12/16 09:10:05;;;;;;;32.80;12.50;;;;;;;6.89;94.22;101728.73;102800;1320;25331;-60
2021/12/16 09:12:52;;;;;;;35.60;13.20;;;;;;;6.89;94.25;101725.46;102809;1315;22640;-60
2021/12/16 09:15:26;;;;;;;29.20;10.50;;;;;;;6.90;94.39;101727.29;102731;1316;22564;-60
2021/12/16 09:17:57;;;;;;;27.10;10.70;;;;;;;6.89;94.42;101727.60;102870;1312;22595;-60
2021/12/16 09:20:28;;;;;;;28.20;11.20;;;;;;;6.87;94.51;101728.58;102821;1320;24325;-59
2021/12/16 09:23:00;;;;;;;29.00;10.60;;;;;;;6.87;94.47;101728.45;102834;1319;23138;-61
2021/12/16 09:25:32;;;;;;;24.50;9.90;;;;;;;6.86;94.48;101731.47;102925;1316;22617;-61
2021/12/16 09:28:03;;;;;;;23.70;8.80;;;;;;;6.85;94.60;101730.61;102785;1319;24337;-60
2021/12/16 09:30:35;;;;;;;25.00;9.40;;;;;;;6.85;94.68;101734.20;102758;1315;26138;-59
2021/12/16 09:33:12;;;;;;;24.70;8.30;;;;;;;6.85;94.67;101731.56;102790;1312;22593;-61
2021/12/16 09:35:47;;;;;;;22.10;9.20;;;;;;;6.84;94.68;101734.67;102811;1312;22582;-58
2021/12/16 09:38:19;;;;;;;19.20;7.30;;;;;;;6.84;94.79;101739.74;102739;1312;22586;-60
2021/12/16 09:40:54;;;;;;;22.10;8.20;;;;;;;6.84;94.86;101737.61;102727;1320;22644;-59
2021/12/16 09:43:28;;;;;;;24.80;9.40;;;;;;;6.84;94.95;101731.18;102751;1317;22655;-60
2021/12/16 09:46:02;;;;;;;21.20;8.90;;;;;;;6.85;95.06;101726.64;102774;1316;24247;-59
2021/12/16 09:48:35;;;;;;;21.70;7.90;;;;;;;6.86;95.08;101728.20;102928;1317;22604;-60
2021/12/16 09:51:09;;;;;;;19.50;6.00;;;;;;;6.89;95.19;101729.67;102800;1312;22568;-59
2021/12/16 09:53:45;;;;;;;19.10;7.20;;;;;;;6.89;95.08;101732.52;103490;1301;22590;-63
2021/12/16 09:56:17;;;;;;;18.60;6.60;;;;;;;6.90;95.15;101731.25;102934;1312;25570;-64
2021/12/16 09:58:51;;;;;;;18.60;6.60;;;;;;;6.90;95.17;101730.77;102852;1316;24269;-64
2021/12/16 10:01:25;;;;;;;18.90;6.00;;;;;;;6.90;95.27;101729.02;102890;1312;24282;-63
2021/12/16 10:04:01;;;;;;;19.40;7.20;;;;;;;6.91;95.44;101731.01;103006;1313;23124;-63
2021/12/16 10:06:36;;;;;;;18.90;6.80;;;;;;;6.92;95.47;101735.35;102862;1314;22669;-65
2021/12/16 10:09:08;;;;;;;17.50;6.40;;;;;;;6.93;95.47;101738.59;102985;1313;24248;-63
2021/12/16 10:11:43;;;;;;;17.70;6.40;;;;;;;6.93;95.65;101737.71;102986;1313;25263;-63
2021/12/16 10:14:34;;;;;;;17.40;6.10;;;;;;;6.93;95.51;101743.66;102956;1312;22592;-64
2021/12/16 10:17:29;;;;;;;17.80;5.80;;;;;;;6.93;95.69;101747.30;103041;1313;22604;-64
2021/12/16 10:20:06;;;;;;;14.00;4.90;;;;;;;6.92;95.70;101745.67;102841;1312;23059;-65
2021/12/16 10:22:40;;;;;;;16.50;5.40;;;;;;;6.91;95.65;101742.17;103039;1312;22593;-64
2021/12/16 10:25:43;;;;;;;14.00;4.50;;;;;;;6.91;95.62;101735.91;102821;1317;22574;-65
2021/12/16 10:28:17;;;;;;;14.90;4.80;;;;;;;6.92;95.71;101735.50;102930;1316;25233;-63
2021/12/16 10:30:54;;;;;;;14.80;5.30;;;;;;;6.92;95.70;101732.88;103074;1316;26685;-62
2021/12/16 10:33:30;;;;;;;16.30;5.00;;;;;;;6.92;95.78;101740.02;103020;1313;25295;-63
2021/12/16 10:36:16;;;;;;;13.70;5.00;;;;;;;6.92;95.88;101734.08;102884;1313;24474;-62
2021/12/16 10:38:52;;;;;;;14.20;4.90;;;;;;;6.93;96.01;101733.52;103000;1312;22584;-62
2021/12/16 10:41:26;;;;;;;12.40;4.60;;;;;;;6.93;95.90;101733.98;103024;1311;22793;-63
2021/12/16 10:44:04;;;;;;;14.50;5.60;;;;;;;6.94;95.89;101732.06;103012;1318;22699;-63
2021/12/16 10:46:38;;;;;;;14.00;5.30;;;;;;;6.95;96.06;101730.46;103051;1319;22600;-62
2021/12/16 10:49:12;;;;;;;12.30;4.10;;;;;;;6.97;95.96;101735.75;103188;1313;24217;-62
2021/12/16 10:51:45;;;;;;;12.40;4.90;;;;;;;6.97;96.00;101721.14;102946;1312;25351;-63
2021/12/16 10:54:22;;;;;;;17.40;7.00;;;;;;;6.98;96.12;101715.36;102797;1312;22685;-63
2021/12/16 10:57:00;;;;;;;14.70;5.30;;;;;;;6.99;96.13;101709.31;103042;1312;22579;-63
2021/12/16 10:59:35;;;;;;;12.30;5.00;;;;;;;7.01;96.12;101712.54;102976;1318;22643;-62
2021/12/16 11:02:11;;;;;;;15.30;5.10;;;;;;;7.02;96.15;101713.77;102936;1319;26533;-63
2021/12/16 11:04:50;;;;;;;14.10;4.90;;;;;;;7.03;96.26;101710.13;102900;1319;22812;-62
2021/12/16 11:07:28;;;;;;;12.30;4.30;;;;;;;7.05;96.41;101707.07;103018;1312;22581;-63
2021/12/16 11:10:05;;;;;;;12.80;4.40;;;;;;;7.07;96.25;101709.59;103022;1312;24037;-63
2021/12/16 11:12:44;;;;;;;13.30;4.80;;;;;;;7.08;96.34;101719.08;102966;1315;24309;-63
2021/12/16 11:15:24;;;;;;;14.70;5.00;;;;;;;7.09;96.22;101718.04;102958;1319;25297;-63
2021/12/16 11:18:00;;;;;;;13.60;4.30;;;;;;;7.10;96.15;101720.57;102862;1319;24248;-63
2021/12/16 11:20:37;;;;;;;13.30;3.80;;;;;;;7.09;96.30;101730.41;103011;1318;22586;-63
2021/12/16 11:23:12;;;;;;;13.00;4.90;;;;;;;7.09;96.15;101731.84;102962;1312;22701;-63
2021/12/16 11:25:49;;;;;;;11.40;3.90;;;;;;;7.08;96.14;101731.54;103081;1316;22559;-63
2021/12/16 11:28:23;;;;;;;11.70;3.90;;;;;;;7.07;96.13;101739.48;102974;1315;25365;-63
2021/12/16 11:30:58;;;;;;;13.20;4.20;;;;;;;7.07;96.20;101742.12;102976;1318;22558;-62
2021/12/16 11:33:33;;;;;;;15.00;5.30;;;;;;;7.05;96.35;101749.60;103163;1312;22571;-63
2021/12/16 11:36:12;;;;;;;15.30;6.20;;;;;;;7.04;96.43;101749.70;103125;1312;24294;-63
2021/12/16 11:38:48;;;;;;;14.80;5.50;;;;;;;7.03;96.36;101751.77;103094;1317;24314;-63
2021/12/16 11:41:31;;;;;;;13.00;5.30;;;;;;;7.01;96.67;101750.14;103532;1312;22598;-62
2021/12/16 11:44:10;;;;;;;12.70;4.70;;;;;;;6.99;96.83;101746.03;102951;1315;22580;-62
2021/12/16 11:46:45;;;;;;;14.20;4.50;;;;;;;6.98;97.05;101747.95;103067;1316;24302;-61
2021/12/16 11:49:26;;;;;;;14.50;5.90;;;;;;;6.96;97.13;101739.16;102959;1312;24208;-62
2021/12/16 11:52:05;;;;;;;15.00;5.00;;;;;;;6.95;97.18;101731.64;103003;1316;25230;-61
2021/12/16 11:54:38;;;;;;;10.30;3.90;;;;;;;6.97;97.19;101723.23;103572;1316;24412;-62
2021/12/16 11:57:14;;;;;;;13.40;4.70;;;;;;;6.98;97.28;101713.68;103020;1316;24039;-61
2021/12/16 11:59:49;;;;;;;11.90;4.50;;;;;;;7.01;97.31;101722.05;102940;1312;25979;-62
2021/12/16 12:02:27;;;;;;;15.10;5.50;;;;;;;7.03;97.32;101720.98;102825;1318;22678;-62
2021/12/16 12:05:17;;;;;;;12.00;4.70;;;;;;;7.05;97.17;101718.34;102953;1312;24288;-62
2021/12/16 12:07:50;;;;;;;18.70;6.40;;;;;;;7.07;97.15;101715.52;102929;1316;24336;-62
2021/12/16 12:10:39;;;;;;;15.20;5.20;;;;;;;7.09;97.06;101715.11;103084;1318;25227;-62
2021/12/16 12:13:12;;;;;;;16.60;6.50;;;;;;;7.10;97.06;101713.34;103167;1318;22596;-63
2021/12/16 12:16:01;;;;;;;18.10;6.40;;;;;;;7.11;96.95;101719.45;102795;1322;25235;-63
2021/12/16 12:18:39;;;;;;;17.20;5.70;;;;;;;7.12;97.05;101726.02;102967;1317;25351;-63
2021/12/16 12:21:27;;;;;;;18.90;6.70;;;;;;;7.11;96.89;101732.85;102949;1312;24407;-62
2021/12/16 12:24:02;;;;;;;20.10;6.20;;;;;;;7.11;96.87;101720.31;102872;1312;22733;-63
2021/12/16 12:26:36;;;;;;;14.90;5.60;;;;;;;7.12;96.90;101707.03;103237;1312;22554;-63
2021/12/16 12:29:12;;;;;;;12.70;5.00;;;;;;;7.12;96.80;101700.84;103027;1318;22636;-63
2021/12/16 12:31:46;;;;;;;14.00;5.70;;;;;;;7.13;96.82;101704.50;103140;1319;24222;-63
2021/12/16 12:34:20;;;;;;;17.70;5.60;;;;;;;7.13;96.74;101702.43;103089;1319;24227;-63
2021/12/16 12:36:54;;;;;;;20.50;5.80;;;;;;;7.14;96.76;101711.05;103087;1319;22589;-63
2021/12/16 12:39:29;;;;;;;13.10;5.10;;;;;;;7.14;96.71;101722.17;102937;1312;25321;-63
2021/12/16 12:42:02;;;;;;;20.50;6.10;;;;;;;7.13;96.78;101724.64;103010;1316;22919;-63
2021/12/16 12:44:34;;;;;;;13.20;4.70;;;;;;;7.12;96.76;101721.88;103021;1312;22602;-63
2021/12/16 12:47:13;;;;;;;15.90;6.40;;;;;;;7.11;96.74;101721.98;102736;1319;22666;-63
2021/12/16 12:49:46;;;;;;;16.90;5.80;;;;;;;7.10;96.68;101725.09;102989;1316;25413;-63
2021/12/16 12:52:22;;;;;;;13.80;5.00;;;;;;;7.09;96.74;101724.08;102879;1312;22662;-63
2021/12/16 12:55:05;;;;;;;13.60;5.30;;;;;;;7.08;96.69;101722.73;103034;1317;25473;-63
2021/12/16 12:57:38;;;;;;;13.40;4.90;;;;;;;7.07;96.60;101724.75;102726;1313;24298;-63
2021/12/16 13:00:26;;;;;;;13.50;4.60;;;;;;;7.06;96.64;101724.19;103015;1315;24395;-64
2021/12/16 13:03:01;;;;;;;14.40;5.10;;;;;;;7.05;96.70;101731.12;103237;1319;25567;-62
2021/12/16 13:05:32;;;;;;;15.00;5.70;;;;;;;7.04;96.52;101734.85;103042;1312;24272;-61
2021/12/16 13:08:07;;;;;;;14.70;5.10;;;;;;;7.04;96.49;101734.15;102898;1319;24355;-62
2021/12/16 13:10:41;;;;;;;16.90;5.70;;;;;;;7.04;96.50;101728.20;102847;1312;22952;-61
2021/12/16 13:13:33;;;;;;;13.80;4.70;;;;;;;7.04;96.60;101735.02;102962;1319;25392;-64
2021/12/16 13:16:24;;;;;;;15.90;5.30;;;;;;;7.03;96.47;101740.41;102986;1319;22800;-61
2021/12/16 13:25:24;;;;;;;16.30;5.00;;;;;;;7.02;96.43;101746.23;102311;1324;22787;-61
2021/12/16 13:27:46;;;;;;;12.00;4.10;;;;;;;7.02;96.52;101757.09;102408;1325;22707;-62
2021/12/16 13:30:41;;;;;;;14.30;4.60;;;;;;;7.01;96.45;101753.32;102353;1319;25617;-62
2021/12/16 13:33:19;;;;;;;12.50;3.80;;;;;;;7.01;96.40;101756.80;102344;1325;22708;-61
2021/12/16 13:36:02;;;;;;;17.20;6.30;;;;;;;7.01;96.51;101765.69;102437;1318;25423;-62
2021/12/16 13:38:43;;;;;;;15.30;5.30;;;;;;;7.00;96.53;101763.63;102240;1317;22570;-62
2021/12/16 13:41:18;;;;;;;14.30;5.20;;;;;;;6.99;96.49;101764.85;102405;1318;22590;-62
2021/12/16 13:44:01;;;;;;;15.70;5.50;;;;;;;6.99;96.60;101765.80;102361;1321;25266;-61
2021/12/16 13:47:03;;;;;;;16.90;5.00;;;;;;;7.00;96.56;101773.79;102423;1320;22603;-61